Time;durP1;ratioP1;P1;durP2;ratioP2;P2;SDS_P1;SDS_P2;PMS_P1;PMS_P2;Temp;Humidity;BMP_temperature;BMP_pressure;BME280_temperature;BME280_humidity;BME280_pressure;Samples;Min_cycle;Max_cycle;Signal;HPM_P1;HPM_P2
2023/07/23 00:00:29;;;;;;;11.80;5.50;;;11.20;99.90;;;;;;4412842;28;655946;-65
2023/07/23 00:03:18;;;;;;;9.87;5.70;;;11.20;99.90;;;;;;4392838;28;656875;-65
2023/07/23 00:06:06;;;;;;;8.43;5.50;;;11.20;99.90;;;;;;4394765;28;656047;-65
2023/07/23 00:08:53;;;;;;;7.27;5.47;;;11.20;99.90;;;;;;4414322;28;656129;-64
2023/07/23 00:11:40;;;;;;;9.73;5.65;;;11.10;99.90;;;;;;4400302;28;655365;-65
2023/07/23 00:14:27;;;;;;;9.77;5.47;;;11.10;99.90;;;;;;4407401;28;656802;-65
2023/07/23 00:17:15;;;;;;;8.77;5.40;;;11.10;99.90;;;;;;4414722;28;655985;-65
2023/07/23 00:20:04;;;;;;;10.30;5.63;;;11.00;99.90;;;;;;4414503;28;655945;-64
2023/07/23 00:22:52;;;;;;;9.03;5.57;;;11.00;99.90;;;;;;4391777;28;657456;-64
2023/07/23 00:25:39;;;;;;;7.00;5.70;;;11.00;99.90;;;;;;4411155;28;655564;-65
2023/07/23 00:28:26;;;;;;;8.87;5.57;;;11.00;99.90;;;;;;4397375;28;656715;-65
2023/07/23 00:31:13;;;;;;;14.17;5.87;;;11.00;99.90;;;;;;4409001;28;656290;-65
2023/07/23 00:34:03;;;;;;;7.27;5.80;;;11.00;99.90;;;;;;4394476;28;656849;-65
2023/07/23 00:36:52;;;;;;;9.60;6.10;;;10.90;99.90;;;;;;4396068;28;656112;-65
2023/07/23 00:39:39;;;;;;;7.43;5.30;;;10.90;99.90;;;;;;4411008;28;655459;-64
2023/07/23 00:42:26;;;;;;;8.00;5.67;;;10.90;99.90;;;;;;4395639;28;655399;-64
2023/07/23 00:45:13;;;;;;;8.10;5.53;;;10.90;99.90;;;;;;4424869;28;656686;-65
2023/07/23 00:48:00;;;;;;;8.87;5.80;;;10.90;99.90;;;;;;4388932;28;655490;-65
2023/07/23 00:50:48;;;;;;;11.47;7.00;;;10.90;99.90;;;;;;4415182;28;656683;-65
2023/07/23 00:53:37;;;;;;;9.43;6.37;;;10.90;99.90;;;;;;4399505;28;657039;-65
2023/07/23 00:56:24;;;;;;;9.13;6.13;;;10.80;99.90;;;;;;4410690;28;655739;-65
2023/07/23 00:59:11;;;;;;;9.87;5.90;;;10.80;99.90;;;;;;4385859;28;655547;-64
2023/07/23 01:01:58;;;;;;;9.63;6.43;;;10.80;99.90;;;;;;4411284;28;656842;-64
2023/07/23 01:04:46;;;;;;;10.23;6.30;;;10.70;99.90;;;;;;4391695;28;655293;-65
2023/07/23 01:07:33;;;;;;;10.77;6.37;;;10.70;99.90;;;;;;4414204;28;657322;-65
2023/07/23 01:10:21;;;;;;;10.57;6.77;;;10.70;99.90;;;;;;4392964;28;656535;-64
2023/07/23 01:13:09;;;;;;;13.67;6.63;;;10.70;99.90;;;;;;4405625;28;656793;-65
2023/07/23 01:15:56;;;;;;;11.27;6.47;;;10.80;99.90;;;;;;4390887;28;656882;-66
2023/07/23 01:18:43;;;;;;;11.93;6.87;;;10.80;99.90;;;;;;4410309;28;657345;-65
2023/07/23 01:21:30;;;;;;;10.73;6.87;;;10.80;99.90;;;;;;4388515;28;656468;-65
2023/07/23 01:24:19;;;;;;;11.77;7.37;;;10.70;99.90;;;;;;4408420;28;658532;-64
2023/07/23 01:27:06;;;;;;;10.13;6.73;;;10.70;99.90;;;;;;4385368;28;656816;-65
2023/07/23 01:29:54;;;;;;;11.80;7.30;;;10.70;99.90;;;;;;4408214;28;657824;-65
2023/07/23 01:32:41;;;;;;;11.20;7.10;;;10.70;99.90;;;;;;4387229;28;656616;-65
2023/07/23 01:35:28;;;;;;;13.60;7.53;;;10.70;99.90;;;;;;4411742;28;657335;-65
2023/07/23 01:38:15;;;;;;;11.73;7.20;;;10.60;99.90;;;;;;4392859;28;656405;-66
2023/07/23 01:41:04;;;;;;;13.33;7.50;;;10.60;99.90;;;;;;4397087;28;657151;-65
2023/07/23 01:43:51;;;;;;;13.13;7.30;;;10.60;99.90;;;;;;4389195;28;656602;-65
2023/07/23 01:46:38;;;;;;;12.57;7.47;;;10.50;99.90;;;;;;4404760;28;657735;-65
2023/07/23 01:49:26;;;;;;;9.60;7.17;;;10.50;99.90;;;;;;4391544;28;658188;-65
2023/07/23 01:52:13;;;;;;;9.33;6.30;;;10.50;99.90;;;;;;4408706;28;656249;-65
2023/07/23 01:55:00;;;;;;;16.67;6.93;;;10.40;99.90;;;;;;4389890;28;655903;-65
2023/07/23 01:57:49;;;;;;;12.30;7.63;;;10.50;99.90;;;;;;4405535;28;657203;-65
2023/07/23 02:00:37;;;;;;;13.17;7.93;;;10.50;99.90;;;;;;4385377;28;657060;-65
2023/07/23 02:03:25;;;;;;;13.53;7.97;;;10.50;99.90;;;;;;4404115;28;656546;-65
2023/07/23 02:06:13;;;;;;;12.23;7.90;;;10.50;99.90;;;;;;4409180;28;657534;-65
2023/07/23 02:09:00;;;;;;;11.10;7.33;;;10.50;99.90;;;;;;4401298;28;656582;-65
2023/07/23 02:11:47;;;;;;;13.50;7.67;;;10.50;99.90;;;;;;4410639;28;657215;-65
2023/07/23 02:14:36;;;;;;;13.77;8.03;;;10.40;99.90;;;;;;4411160;28;656520;-65
2023/07/23 02:17:23;;;;;;;11.87;8.27;;;10.50;99.90;;;;;;4389287;28;656854;-65
2023/07/23 02:20:11;;;;;;;11.90;7.40;;;10.50;99.90;;;;;;4389478;28;656843;-65
2023/07/23 02:22:59;;;;;;;12.17;7.77;;;10.50;99.90;;;;;;4401418;28;657606;-65
2023/07/23 02:25:48;;;;;;;10.43;7.43;;;10.50;99.90;;;;;;4393276;28;656708;-65
2023/07/23 02:28:38;;;;;;;11.83;7.43;;;10.50;99.90;;;;;;4391723;28;656764;-65
2023/07/23 02:31:27;;;;;;;11.03;7.60;;;10.50;99.90;;;;;;4389979;28;656417;-65
2023/07/23 02:34:14;;;;;;;19.20;7.73;;;10.50;99.90;;;;;;4404350;28;656628;-65
2023/07/23 02:37:01;;;;;;;14.83;8.57;;;10.50;99.90;;;;;;4393009;28;656487;-65
2023/07/23 02:39:48;;;;;;;13.37;7.67;;;10.50;99.90;;;;;;4410886;28;657252;-65
2023/07/23 02:42:36;;;;;;;10.93;7.30;;;10.50;99.90;;;;;;4384569;28;657074;-65
2023/07/23 02:45:23;;;;;;;11.83;7.03;;;10.50;99.90;;;;;;4417121;28;656991;-65
2023/07/23 02:48:12;;;;;;;12.80;7.87;;;10.50;99.90;;;;;;4394354;28;657340;-66
2023/07/23 02:50:59;;;;;;;10.03;7.40;;;10.50;99.90;;;;;;4407535;28;656312;-65
2023/07/23 02:53:46;;;;;;;13.77;7.83;;;10.50;99.90;;;;;;4391782;28;656806;-65
2023/07/23 02:56:33;;;;;;;12.83;8.40;;;10.40;99.90;;;;;;4409199;28;656908;-65
2023/07/23 02:59:20;;;;;;;9.23;6.97;;;10.40;99.90;;;;;;4395963;28;656797;-65
2023/07/23 03:02:08;;;;;;;11.60;8.00;;;10.40;99.90;;;;;;4412071;28;657009;-65
2023/07/23 03:04:57;;;;;;;12.10;8.00;;;10.50;99.90;;;;;;4396900;28;656319;-65
2023/07/23 03:07:44;;;;;;;12.23;7.83;;;10.50;99.90;;;;;;4409039;28;656015;-65
2023/07/23 03:10:31;;;;;;;11.07;7.40;;;10.50;99.90;;;;;;4394371;28;656542;-65
2023/07/23 03:13:18;;;;;;;13.43;8.40;;;10.50;99.90;;;;;;4409892;28;656925;-65
2023/07/23 03:16:05;;;;;;;12.97;7.87;;;10.50;99.90;;;;;;4383928;28;656731;-65
2023/07/23 03:18:53;;;;;;;11.07;7.67;;;10.50;99.90;;;;;;4408521;28;657855;-65
2023/07/23 03:21:42;;;;;;;10.73;7.23;;;10.50;99.90;;;;;;4391711;28;657312;-66
2023/07/23 03:24:29;;;;;;;11.20;7.80;;;10.50;99.90;;;;;;4409275;28;656132;-66
2023/07/23 03:27:16;;;;;;;11.23;7.97;;;10.60;99.90;;;;;;4384750;28;657141;-65
2023/07/23 03:30:04;;;;;;;11.17;8.33;;;10.60;99.90;;;;;;4408946;28;656346;-64
2023/07/23 03:32:52;;;;;;;15.17;8.23;;;10.60;99.90;;;;;;4388903;28;656525;-65
2023/07/23 03:35:39;;;;;;;10.20;8.00;;;10.60;99.90;;;;;;4410354;28;656837;-65
2023/07/23 03:38:28;;;;;;;12.23;8.07;;;10.70;99.90;;;;;;4386469;28;656703;-65
2023/07/23 03:41:15;;;;;;;12.73;8.77;;;10.80;99.90;;;;;;4391752;28;656806;-65
2023/07/23 03:44:03;;;;;;;13.83;8.40;;;10.80;99.90;;;;;;4413095;28;656210;-65
2023/07/23 03:47:02;;;;;;;12.77;8.63;;;10.90;99.90;;;;;;4395296;28;656681;-65
2023/07/23 03:49:49;;;;;;;13.20;8.77;;;11.00;99.90;;;;;;4391121;28;657737;-65
2023/07/23 03:52:36;;;;;;;13.47;8.00;;;11.00;99.90;;;;;;4392917;28;656422;-65
2023/07/23 03:55:25;;;;;;;11.33;7.77;;;11.00;99.90;;;;;;4408813;28;656997;-65
2023/07/23 03:58:12;;;;;;;12.10;8.23;;;11.10;99.90;;;;;;4381019;28;657505;-65
2023/07/23 04:00:59;;;;;;;15.20;9.07;;;11.20;99.90;;;;;;4402512;28;656935;-65
2023/07/23 04:03:46;;;;;;;12.07;7.73;;;11.30;99.90;;;;;;4393294;28;657330;-65
2023/07/23 04:06:33;;;;;;;11.90;8.60;;;11.30;99.90;;;;;;4411786;28;657563;-65
2023/07/23 04:09:21;;;;;;;12.50;8.57;;;11.50;99.90;;;;;;4391415;28;656656;-65
2023/07/23 04:12:10;;;;;;;11.93;8.13;;;11.50;99.90;;;;;;4411280;28;657826;-65
2023/07/23 04:14:57;;;;;;;14.67;8.07;;;11.60;99.90;;;;;;4389423;28;657688;-65
2023/07/23 04:17:44;;;;;;;13.63;7.83;;;11.70;99.90;;;;;;4411851;28;657003;-65
2023/07/23 04:20:32;;;;;;;12.37;8.27;;;11.80;99.90;;;;;;4385444;28;657586;-65
2023/07/23 04:23:19;;;;;;;13.30;8.50;;;11.90;99.90;;;;;;4410557;28;656888;-65
2023/07/23 04:26:06;;;;;;;13.67;8.37;;;12.10;99.90;;;;;;4385420;28;656947;-66
2023/07/23 04:28:55;;;;;;;14.70;9.17;;;12.20;99.90;;;;;;4409850;28;657437;-65
2023/07/23 04:31:42;;;;;;;13.10;8.50;;;12.30;99.90;;;;;;4386888;28;657063;-65
2023/07/23 04:34:29;;;;;;;17.13;9.70;;;12.50;99.90;;;;;;4406557;28;656302;-65
2023/07/23 04:37:16;;;;;;;15.50;9.13;;;12.60;99.90;;;;;;4399124;28;657104;-65
2023/07/23 04:40:04;;;;;;;16.63;9.47;;;12.70;99.90;;;;;;4415121;28;657403;-65
2023/07/23 04:42:51;;;;;;;18.50;8.83;;;12.90;99.90;;;;;;4389985;28;656624;-65
2023/07/23 04:45:40;;;;;;;17.87;9.43;;;13.00;99.90;;;;;;4409146;28;656222;-65
2023/07/23 04:48:28;;;;;;;18.10;10.00;;;13.20;99.90;;;;;;4391830;28;657305;-65
2023/07/23 04:51:16;;;;;;;15.70;9.33;;;13.50;99.90;;;;;;4394329;28;657582;-66
2023/07/23 04:54:03;;;;;;;13.80;8.17;;;13.70;99.90;;;;;;4410329;28;657306;-65
2023/07/23 04:56:50;;;;;;;16.60;9.10;;;13.90;99.90;;;;;;4395790;28;656876;-66
2023/07/23 04:59:37;;;;;;;13.70;9.00;;;14.10;99.90;;;;;;4411684;28;657524;-65
2023/07/23 05:02:26;;;;;;;15.37;9.73;;;14.40;99.90;;;;;;4423122;28;656012;-65
2023/07/23 05:05:13;;;;;;;18.83;9.37;;;14.70;99.90;;;;;;4391523;28;656904;-66
2023/07/23 05:08:00;;;;;;;14.43;8.93;;;14.90;99.90;;;;;;4394567;28;656946;-65
2023/07/23 05:10:47;;;;;;;15.47;8.83;;;15.20;99.90;;;;;;4409426;28;657074;-64
2023/07/23 05:13:36;;;;;;;15.00;8.70;;;15.40;99.90;;;;;;4412068;28;656869;-65
2023/07/23 05:16:23;;;;;;;13.43;7.93;;;15.60;99.90;;;;;;4412704;28;657279;-65
2023/07/23 05:19:11;;;;;;;14.07;8.43;;;15.70;99.90;;;;;;4397351;28;656183;-65
2023/07/23 05:21:59;;;;;;;15.40;8.60;;;15.90;99.90;;;;;;4410244;28;657201;-64
2023/07/23 05:24:46;;;;;;;14.90;8.33;;;16.10;99.90;;;;;;4392072;28;656515;-65
2023/07/23 05:27:33;;;;;;;13.00;7.63;;;16.30;99.90;;;;;;4401340;28;657285;-64
2023/07/23 05:30:21;;;;;;;10.10;7.33;;;16.50;99.90;;;;;;4386726;28;657508;-65
2023/07/23 05:33:09;;;;;;;12.60;8.20;;;16.80;99.90;;;;;;4406832;28;657869;-64
2023/07/23 05:35:57;;;;;;;10.57;7.57;;;17.00;99.90;;;;;;4386652;28;658122;-65
2023/07/23 05:38:44;;;;;;;17.87;7.67;;;17.10;99.90;;;;;;4407020;28;657758;-65
2023/07/23 05:41:32;;;;;;;12.13;7.33;;;17.30;99.90;;;;;;4370547;28;658581;-64
2023/07/23 05:44:19;;;;;;;11.77;7.30;;;17.50;99.90;;;;;;4411851;28;657331;-64
2023/07/23 05:47:07;;;;;;;15.27;7.40;;;17.70;99.90;;;;;;4391660;28;657249;-65
2023/07/23 05:49:54;;;;;;;11.67;7.30;;;17.90;99.90;;;;;;4413155;28;657368;-64
2023/07/23 05:52:43;;;;;;;13.23;7.13;;;18.00;99.90;;;;;;4397114;28;657693;-65
2023/07/23 05:55:30;;;;;;;11.73;7.00;;;18.10;99.90;;;;;;4401365;28;657768;-64
2023/07/23 05:58:17;;;;;;;10.83;6.43;;;18.20;99.90;;;;;;4411857;28;657886;-64
2023/07/23 06:01:04;;;;;;;14.17;7.27;;;18.30;99.90;;;;;;4411804;28;657662;-64
2023/07/23 06:03:52;;;;;;;12.33;6.77;;;18.30;99.90;;;;;;4390444;28;658859;-64
2023/07/23 06:06:39;;;;;;;13.20;6.90;;;18.20;99.90;;;;;;4405942;28;657274;-64
2023/07/23 06:09:27;;;;;;;17.10;6.87;;;18.40;99.90;;;;;;4395653;28;657294;-64
2023/07/23 06:12:14;;;;;;;10.63;6.10;;;18.50;99.90;;;;;;4409635;28;658412;-64
2023/07/23 06:15:02;;;;;;;7.93;5.40;;;18.80;99.90;;;;;;4386460;28;659202;-65
2023/07/23 06:17:49;;;;;;;10.07;5.83;;;18.90;99.90;;;;;;4410785;28;656631;-64
2023/07/23 06:20:36;;;;;;;11.13;6.53;;;19.10;99.90;;;;;;4385435;28;658277;-64
2023/07/23 06:23:24;;;;;;;17.07;6.63;;;19.20;99.90;;;;;;4414709;28;657780;-64
2023/07/23 06:26:12;;;;;;;10.97;5.83;;;19.40;99.90;;;;;;4394180;28;657478;-65
2023/07/23 06:28:59;;;;;;;9.13;5.20;;;19.60;99.90;;;;;;4408406;28;658060;-64
2023/07/23 06:31:47;;;;;;;8.93;5.50;;;19.80;99.90;;;;;;4391192;28;657380;-64
2023/07/23 06:34:34;;;;;;;7.70;4.93;;;19.90;99.90;;;;;;4407261;28;656477;-64
2023/07/23 06:37:21;;;;;;;7.67;5.10;;;19.80;99.90;;;;;;4393844;28;656975;-64
2023/07/23 06:40:09;;;;;;;9.30;5.30;;;19.60;99.90;;;;;;4402285;28;657763;-64
2023/07/23 06:42:58;;;;;;;9.93;5.17;;;19.40;99.90;;;;;;4391150;28;656788;-64
2023/07/23 06:45:45;;;;;;;8.17;5.07;;;19.30;99.90;;;;;;4396396;28;656564;-64
2023/07/23 06:48:32;;;;;;;10.83;5.53;;;19.40;99.90;;;;;;4418580;28;656313;-64
2023/07/23 06:51:20;;;;;;;6.27;4.63;;;19.50;99.90;;;;;;4406693;28;658158;-64
2023/07/23 06:54:07;;;;;;;8.00;4.60;;;19.70;99.90;;;;;;4412712;28;658135;-64
2023/07/23 06:56:56;;;;;;;7.30;5.03;;;19.70;99.90;;;;;;4393899;28;656584;-65
2023/07/23 06:59:46;;;;;;;6.67;4.60;;;19.80;99.90;;;;;;4408038;28;657448;-64
2023/07/23 07:02:33;;;;;;;8.67;5.20;;;19.90;99.90;;;;;;4377572;28;656942;-64
2023/07/23 07:05:20;;;;;;;9.43;5.20;;;20.10;99.90;;;;;;4382460;28;656419;-64
2023/07/23 07:08:07;;;;;;;10.23;5.20;;;20.30;99.90;;;;;;4418467;28;657523;-64
2023/07/23 07:10:58;;;;;;;7.87;4.67;;;20.70;99.90;;;;;;4415487;28;658738;-64
2023/07/23 07:13:45;;;;;;;8.20;4.57;;;21.00;99.90;;;;;;4367629;28;656812;-64
2023/07/23 07:16:34;;;;;;;9.37;4.57;;;21.10;99.90;;;;;;4405171;28;657246;-64
2023/07/23 07:19:21;;;;;;;7.03;4.47;;;21.30;99.90;;;;;;4390635;28;656505;-63
2023/07/23 07:22:09;;;;;;;7.23;4.47;;;21.30;99.90;;;;;;4398520;28;656907;-63
2023/07/23 07:24:56;;;;;;;6.57;4.60;;;21.40;99.90;;;;;;4385484;28;656825;-64
2023/07/23 07:27:43;;;;;;;11.90;5.57;;;21.30;99.90;;;;;;4403311;28;656818;-64
2023/07/23 07:30:30;;;;;;;7.47;4.70;;;21.50;99.90;;;;;;4391621;28;657815;-64
2023/07/23 07:33:19;;;;;;;8.27;4.33;;;21.60;99.90;;;;;;4414862;28;657961;-63
2023/07/23 07:36:06;;;;;;;7.13;4.63;;;21.80;99.90;;;;;;4385901;28;656796;-64
2023/07/23 07:38:53;;;;;;;7.17;4.40;;;21.90;99.90;;;;;;4416676;28;656789;-64
2023/07/23 07:41:41;;;;;;;7.27;4.50;;;22.00;99.90;;;;;;4385957;28;657220;-64
2023/07/23 07:44:29;;;;;;;10.03;4.40;;;22.20;99.90;;;;;;4410327;28;657783;-64
2023/07/23 07:47:16;;;;;;;8.67;4.90;;;22.20;99.90;;;;;;4386577;28;657769;-64
2023/07/23 07:50:07;;;;;;;6.50;4.73;;;22.30;99.90;;;;;;4415137;28;657314;-64
2023/07/23 07:52:54;;;;;;;7.87;4.77;;;22.30;99.90;;;;;;4383559;28;656400;-63
2023/07/23 07:55:42;;;;;;;10.57;4.60;;;22.50;99.90;;;;;;4392639;28;656751;-64
2023/07/23 07:58:30;;;;;;;8.17;4.40;;;22.70;99.90;;;;;;4409550;28;657423;-64
2023/07/23 08:01:17;;;;;;;8.33;4.80;;;22.70;99.90;;;;;;4386862;28;657251;-64
2023/07/23 08:04:07;;;;;;;7.60;4.13;;;22.70;99.90;;;;;;4404890;28;656539;-64
2023/07/23 08:06:56;;;;;;;6.33;4.53;;;22.60;99.90;;;;;;4410525;28;656716;-64
2023/07/23 08:09:43;;;;;;;7.83;4.40;;;22.50;99.90;;;;;;4386914;28;658025;-63
2023/07/23 08:12:30;;;;;;;8.47;4.43;;;22.60;99.90;;;;;;4388249;28;656572;-64
2023/07/23 08:15:18;;;;;;;6.77;4.63;;;22.60;99.90;;;;;;4415023;28;657183;-64
2023/07/23 08:18:06;;;;;;;10.87;4.67;;;22.50;99.90;;;;;;4396163;28;656604;-64
2023/07/23 08:20:54;;;;;;;7.23;4.70;;;22.60;99.90;;;;;;4416470;28;658437;-64
2023/07/23 08:23:43;;;;;;;7.93;4.47;;;22.90;99.90;;;;;;4393414;28;656963;-64
2023/07/23 08:26:31;;;;;;;7.30;4.55;;;23.30;99.90;;;;;;4396603;28;657010;-64
2023/07/23 08:29:18;;;;;;;6.82;4.50;;;23.60;99.90;;;;;;4421999;28;658141;-64
2023/07/23 08:32:07;;;;;;;7.45;4.72;;;23.80;99.90;;;;;;4390655;28;656757;-64
2023/07/23 08:34:54;;;;;;;8.30;4.30;;;23.60;99.90;;;;;;4415773;28;656753;-64
2023/07/23 08:37:42;;;;;;;5.93;4.60;;;23.90;99.90;;;;;;4399973;28;656487;-64
2023/07/23 08:40:30;;;;;;;6.75;4.60;;;24.00;99.90;;;;;;4412066;28;656373;-64
2023/07/23 08:43:42;;;;;;;6.32;4.40;;;24.30;99.90;;;;;;4387855;28;656698;-65
2023/07/23 08:46:29;;;;;;;7.57;4.90;;;24.60;99.90;;;;;;4389085;28;656344;-64
2023/07/23 08:49:17;;;;;;;8.02;3.92;;;24.80;99.90;;;;;;4397341;28;656496;-64
2023/07/23 08:52:05;;;;;;;5.60;3.72;;;24.90;99.90;;;;;;4416883;28;656476;-63
2023/07/23 08:54:52;;;;;;;5.73;3.40;;;24.90;99.90;;;;;;4400415;28;657669;-64
2023/07/23 08:57:41;;;;;;;7.18;4.13;;;25.20;99.90;;;;;;4416442;28;656883;-64
2023/07/23 09:00:28;;;;;;;8.43;4.10;;;25.10;94.90;;;;;;4388947;28;656722;-63
2023/07/23 09:03:17;;;;;;;5.40;3.80;;;24.80;99.90;;;;;;4401874;28;656966;-63
2023/07/23 09:06:06;;;;;;;6.38;4.00;;;24.30;98.90;;;;;;4402830;28;656790;-64
2023/07/23 09:08:53;;;;;;;4.75;3.40;;;24.40;99.90;;;;;;4416532;28;657666;-64
2023/07/23 09:11:40;;;;;;;6.60;3.38;;;24.80;99.90;;;;;;4396879;28;656932;-63
2023/07/23 09:14:29;;;;;;;5.05;3.20;;;24.70;98.00;;;;;;4403187;28;657720;-63
2023/07/23 09:17:17;;;;;;;4.60;2.85;;;25.10;99.90;;;;;;4389925;28;656881;-63
2023/07/23 09:20:05;;;;;;;6.70;2.95;;;24.90;86.00;;;;;;4427099;28;656320;-63
2023/07/23 09:22:52;;;;;;;5.57;3.00;;;25.30;94.20;;;;;;4384476;28;657805;-63
2023/07/23 09:25:41;;;;;;;6.25;3.20;;;25.40;94.40;;;;;;4413066;28;656318;-64
2023/07/23 09:28:28;;;;;;;5.10;2.85;;;25.30;90.30;;;;;;4390367;28;657655;-63
2023/07/23 09:31:20;;;;;;;8.18;2.88;;;25.20;90.70;;;;;;4395045;28;656489;-63
2023/07/23 09:34:07;;;;;;;5.55;2.92;;;25.50;86.20;;;;;;4402104;28;657755;-63
2023/07/23 09:36:55;;;;;;;4.22;2.90;;;25.60;83.10;;;;;;4411492;28;657332;-64
2023/07/23 09:39:42;;;;;;;5.10;3.00;;;25.60;84.80;;;;;;4433430;28;658166;-63
2023/07/23 09:42:30;;;;;;;5.10;3.00;;;25.30;81.70;;;;;;4426881;28;656424;-64
2023/07/23 09:45:17;;;;;;;3.65;2.72;;;25.60;81.60;;;;;;4412711;28;658064;-63
2023/07/23 09:48:07;;;;;;;5.18;3.00;;;26.20;89.90;;;;;;4402651;28;657990;-64
2023/07/23 09:50:57;;;;;;;5.60;2.58;;;26.40;82.60;;;;;;4401846;28;656606;-64
2023/07/23 09:53:45;;;;;;;7.22;2.30;;;26.40;75.90;;;;;;4401062;28;656636;-63
2023/07/23 09:56:33;;;;;;;3.15;2.30;;;26.30;75.60;;;;;;4398063;28;656978;-64
2023/07/23 09:59:21;;;;;;;9.27;2.55;;;26.50;62.10;;;;;;4390268;28;656336;-64
2023/07/23 10:02:08;;;;;;;3.65;2.55;;;25.80;60.30;;;;;;4429936;28;658147;-63
2023/07/23 10:04:57;;;;;;;9.13;2.47;;;26.10;67.60;;;;;;4406275;28;656575;-64
2023/07/23 10:07:45;;;;;;;3.15;2.22;;;26.00;65.90;;;;;;4413816;28;656646;-63
2023/07/23 10:10:33;;;;;;;4.15;2.00;;;26.20;65.70;;;;;;4376161;28;656824;-64
2023/07/23 10:13:20;;;;;;;5.18;2.63;;;26.00;60.30;;;;;;4395916;28;656437;-63
2023/07/23 10:16:09;;;;;;;5.60;2.35;;;25.70;63.00;;;;;;4428913;28;657586;-63
2023/07/23 10:18:57;;;;;;;3.00;2.23;;;25.20;60.80;;;;;;4400566;28;656458;-64
2023/07/23 10:21:49;;;;;;;4.85;2.40;;;24.90;63.20;;;;;;4414488;28;656437;-63
2023/07/23 10:24:39;;;;;;;4.05;2.58;;;24.70;62.90;;;;;;4398667;28;656753;-63
2023/07/23 10:27:26;;;;;;;5.25;2.58;;;25.00;65.20;;;;;;4400701;28;657941;-63
2023/07/23 10:30:17;;;;;;;3.92;2.72;;;25.80;67.20;;;;;;4399593;28;657258;-63
2023/07/23 10:33:29;;;;;;;3.45;2.58;;;26.30;70.90;;;;;;4389577;28;656546;-63
2023/07/23 10:36:16;;;;;;;7.05;2.25;;;26.70;63.40;;;;;;4391358;28;657147;-64
2023/07/23 10:39:17;;;;;;;8.88;2.90;;;26.00;59.60;;;;;;4416644;28;658134;-63
2023/07/23 10:42:05;;;;;;;4.90;2.50;;;26.10;66.10;;;;;;4397700;28;657058;-62
2023/07/23 10:45:15;;;;;;;2.60;2.30;;;26.20;59.30;;;;;;4385116;28;657729;-63
2023/07/23 10:48:03;;;;;;;4.20;2.42;;;26.20;59.00;;;;;;4362309;28;658173;-63
2023/07/23 10:51:00;;;;;;;2.95;2.20;;;26.10;60.40;;;;;;4385637;28;657862;-65
2023/07/23 10:53:57;;;;;;;8.50;2.45;;;26.00;58.30;;;;;;4381273;28;656399;-63
2023/07/23 10:56:46;;;;;;;4.40;2.28;;;26.20;60.80;;;;;;4392779;28;656230;-63
2023/07/23 10:59:33;;;;;;;4.82;2.38;;;26.70;61.30;;;;;;4388647;28;657302;-64
2023/07/23 11:02:26;;;;;;;5.20;2.50;;;27.40;55.90;;;;;;4395358;28;656517;-63
2023/07/23 11:05:13;;;;;;;2.65;1.80;;;27.10;54.00;;;;;;4396666;28;657869;-65
2023/07/23 11:08:13;;;;;;;5.22;2.63;;;26.80;52.10;;;;;;4393134;28;656811;-63
2023/07/23 11:11:01;;;;;;;4.45;2.50;;;26.50;53.70;;;;;;4361347;28;656576;-65
2023/07/23 11:13:49;;;;;;;7.30;2.45;;;26.90;54.20;;;;;;4411975;28;656703;-63
2023/07/23 11:16:37;;;;;;;6.60;2.63;;;27.10;54.30;;;;;;4388016;28;656509;-62
2023/07/23 11:19:25;;;;;;;4.05;2.40;;;27.30;52.80;;;;;;4410995;28;656949;-65
2023/07/23 11:22:13;;;;;;;3.67;2.22;;;27.00;51.90;;;;;;4389449;28;657304;-64
2023/07/23 11:25:00;;;;;;;3.58;2.53;;;27.60;52.00;;;;;;4395484;28;656406;-65
2023/07/23 11:27:47;;;;;;;3.90;2.53;;;27.40;52.80;;;;;;4419174;28;656790;-64
2023/07/23 11:30:35;;;;;;;3.42;2.15;;;27.90;50.40;;;;;;4423184;28;656500;-65
2023/07/23 11:33:22;;;;;;;6.82;2.30;;;27.50;47.80;;;;;;4437119;28;657114;-63
2023/07/23 11:36:12;;;;;;;5.65;2.40;;;27.40;49.40;;;;;;4417144;28;656527;-64
2023/07/23 11:38:59;;;;;;;6.70;2.67;;;27.50;49.80;;;;;;4429848;28;656061;-63
2023/07/23 11:41:46;;;;;;;7.47;2.40;;;27.30;49.60;;;;;;4386512;28;656954;-63
2023/07/23 11:44:33;;;;;;;3.92;2.58;;;26.40;51.50;;;;;;4414711;28;657406;-63
2023/07/23 11:47:20;;;;;;;11.07;2.85;;;25.70;50.90;;;;;;4394298;28;656853;-64
2023/07/23 11:50:08;;;;;;;5.65;2.50;;;25.90;53.50;;;;;;4413623;28;658449;-63
2023/07/23 11:53:04;;;;;;;4.80;2.78;;;26.10;52.90;;;;;;4363060;28;656635;-64
2023/07/23 11:55:51;;;;;;;3.58;2.60;;;26.80;50.80;;;;;;4363296;28;656673;-63
2023/07/23 11:58:38;;;;;;;8.68;2.88;;;26.80;51.30;;;;;;4386364;28;657544;-63
2023/07/23 12:01:25;;;;;;;6.00;2.75;;;26.30;50.20;;;;;;4363210;28;656519;-64
2023/07/23 12:04:12;;;;;;;4.05;2.72;;;26.00;49.50;;;;;;4369898;28;656916;-63
2023/07/23 12:07:00;;;;;;;3.40;2.40;;;26.30;54.20;;;;;;4375217;28;656374;-63
2023/07/23 12:09:49;;;;;;;5.60;2.80;;;26.80;53.50;;;;;;4391515;28;658351;-63
2023/07/23 12:12:36;;;;;;;6.85;2.85;;;26.30;49.00;;;;;;4364725;28;656555;-65
2023/07/23 12:15:23;;;;;;;3.25;2.22;;;26.30;50.80;;;;;;4384430;28;656663;-64
2023/07/23 12:18:11;;;;;;;7.47;2.95;;;26.60;47.80;;;;;;4367017;28;656482;-63
2023/07/23 12:20:59;;;;;;;5.65;2.97;;;26.70;48.60;;;;;;4388009;28;656773;-64
2023/07/23 12:23:46;;;;;;;4.38;2.67;;;26.90;48.00;;;;;;4367941;28;656311;-63
2023/07/23 12:26:35;;;;;;;5.88;2.78;;;27.20;48.60;;;;;;4393518;28;657348;-64
2023/07/23 12:29:22;;;;;;;3.92;2.40;;;27.20;45.90;;;;;;4358683;28;657988;-64
2023/07/23 12:32:11;;;;;;;5.75;2.97;;;27.40;49.40;;;;;;4368121;28;656838;-63
2023/07/23 12:34:59;;;;;;;7.00;3.10;;;27.90;48.50;;;;;;4380764;28;657309;-65
2023/07/23 12:37:46;;;;;;;7.80;2.83;;;27.90;47.30;;;;;;4363905;28;657225;-65
2023/07/23 12:40:33;;;;;;;3.97;2.65;;;28.10;46.40;;;;;;4380373;28;657800;-63
2023/07/23 12:43:22;;;;;;;5.95;2.80;;;27.90;44.90;;;;;;4348479;28;656462;-63
2023/07/23 12:46:09;;;;;;;8.27;2.75;;;27.40;45.70;;;;;;4385126;28;656446;-64
2023/07/23 12:48:56;;;;;;;6.32;2.58;;;27.90;48.00;;;;;;4377137;28;657001;-64
2023/07/23 12:51:43;;;;;;;6.10;2.53;;;27.70;45.30;;;;;;4389366;28;657828;-63
2023/07/23 12:54:31;;;;;;;6.82;2.70;;;27.30;46.00;;;;;;4375946;28;656550;-63
2023/07/23 12:57:18;;;;;;;4.53;2.78;;;27.60;47.90;;;;;;4403890;28;656939;-63
2023/07/23 13:00:09;;;;;;;4.50;2.42;;;27.80;46.00;;;;;;4390502;28;656784;-65
2023/07/23 13:02:56;;;;;;;6.53;2.80;;;28.10;44.10;;;;;;4377352;28;656960;-63
2023/07/23 13:05:43;;;;;;;5.82;2.30;;;28.10;49.40;;;;;;4398060;28;657296;-63
2023/07/23 13:08:30;;;;;;;4.57;2.60;;;28.60;44.90;;;;;;4373183;28;656694;-63
2023/07/23 13:11:17;;;;;;;5.40;2.60;;;28.40;43.70;;;;;;4405843;28;657642;-63
2023/07/23 13:14:05;;;;;;;5.88;3.00;;;28.40;44.80;;;;;;4393364;28;656510;-64
2023/07/23 13:16:54;;;;;;;6.40;2.85;;;28.70;44.80;;;;;;4392793;28;657293;-63
2023/07/23 13:19:41;;;;;;;5.22;2.65;;;29.10;45.30;;;;;;4393267;28;656813;-64
2023/07/23 13:22:28;;;;;;;4.18;2.58;;;29.00;43.10;;;;;;4397250;28;657745;-63
2023/07/23 13:25:15;;;;;;;5.28;2.58;;;28.60;43.70;;;;;;4364187;28;656406;-64
2023/07/23 13:28:03;;;;;;;5.22;2.60;;;28.30;46.10;;;;;;4409175;28;657802;-63
2023/07/23 13:30:50;;;;;;;4.10;2.47;;;27.90;42.80;;;;;;4394499;28;656566;-65
2023/07/23 13:33:39;;;;;;;6.65;3.08;;;27.50;43.30;;;;;;4387730;28;657177;-63
2023/07/23 13:36:26;;;;;;;7.53;2.67;;;27.90;45.30;;;;;;4393169;28;656921;-63
2023/07/23 13:39:13;;;;;;;6.35;3.20;;;28.20;47.50;;;;;;4398810;28;657917;-63
2023/07/23 13:42:01;;;;;;;5.55;3.20;;;28.00;42.20;;;;;;4388143;28;656500;-63
2023/07/23 13:44:48;;;;;;;3.92;2.58;;;28.50;46.50;;;;;;4378390;28;656687;-63
2023/07/23 13:47:35;;;;;;;4.20;2.83;;;28.50;45.40;;;;;;4381900;28;656854;-64
2023/07/23 13:50:24;;;;;;;11.32;2.95;;;28.40;43.10;;;;;;4401751;28;657978;-64
2023/07/23 13:53:11;;;;;;;6.00;2.92;;;28.40;43.10;;;;;;4368855;28;657567;-63
2023/07/23 13:55:58;;;;;;;4.07;2.78;;;28.00;46.80;;;;;;4394611;28;657804;-63
2023/07/23 13:58:45;;;;;;;5.63;3.28;;;27.80;44.10;;;;;;4372554;28;657173;-63
2023/07/23 14:01:33;;;;;;;4.65;2.75;;;27.90;43.40;;;;;;4372776;28;657197;-63
2023/07/23 14:04:20;;;;;;;5.75;3.00;;;28.10;44.80;;;;;;4367730;28;656973;-64
2023/07/23 14:07:09;;;;;;;5.00;2.80;;;28.40;44.30;;;;;;4407869;28;658327;-63
2023/07/23 14:09:57;;;;;;;4.00;2.80;;;28.60;43.30;;;;;;4387552;28;656329;-64
2023/07/23 14:12:44;;;;;;;4.43;3.22;;;27.80;42.90;;;;;;4389894;28;657080;-64
2023/07/23 14:15:31;;;;;;;6.70;3.40;;;28.00;45.50;;;;;;4377660;28;656248;-63
2023/07/23 14:18:18;;;;;;;4.60;3.22;;;28.30;45.20;;;;;;4394923;28;656441;-63